Time;durP1;ratioP1;P1;durP2;ratioP2;P2;SDS_P1;SDS_P2;PMS_P1;PMS_P2;Temp;Humidity;BMP_temperature;BMP_pressure;BME280_temperature;BME280_humidity;BME280_pressure;Samples;Min_cycle;Max_cycle;Signal;HPM_P1;HPM_P2
2021/06/07 00:01:47;;;;;;;2.00;0.43;;;;;;;20.31;43.64;100926.63;5070322;28;20031;-30
2021/06/07 00:04:13;;;;;;;6.18;1.15;;;;;;;20.28;43.73;100921.41;5075467;28;20032;-32
2021/06/07 00:06:40;;;;;;;2.58;1.13;;;;;;;20.34;43.36;100908.88;5081077;28;20029;-32
2021/06/07 00:09:07;;;;;;;3.40;1.43;;;;;;;20.32;43.41;100917.78;5075050;28;20024;-31
2021/06/07 00:11:34;;;;;;;0.98;0.43;;;;;;;20.30;43.52;100911.63;5076051;28;20037;-31
2021/06/07 00:14:02;;;;;;;;;;;;;;;20.31;43.39;100924.84;5074502;28;20055;-31
2021/06/07 00:16:29;;;;;;;3.10;1.40;;;;;;;20.33;43.35;100922.19;5075106;28;19908;-31
2021/06/07 00:18:56;;;;;;;3.28;0.85;;;;;;;20.31;43.38;100921.34;5074633;28;20481;-31
2021/06/07 00:21:24;;;;;;;1.20;0.60;;;;;;;20.32;43.27;100926.63;5073944;28;20028;-32
2021/06/07 00:23:54;;;;;;;0.43;0.40;;;;;;;20.34;43.07;100922.16;5074896;28;20095;-30
2021/06/07 00:26:20;;;;;;;3.50;0.75;;;;;;;20.33;42.99;100914.22;5074862;28;20407;-30
2021/06/07 00:28:46;;;;;;;1.00;0.40;;;;;;;20.34;43.04;100908.00;5074592;28;20447;-31
2021/06/07 00:31:13;;;;;;;0.43;0.20;;;;;;;20.40;42.94;100910.53;5074715;28;20039;-30
2021/06/07 00:33:39;;;;;;;0.00;0.00;;;;;;;20.32;43.08;100901.84;5073894;28;20029;-30
2021/06/07 00:36:06;;;;;;;13.85;1.15;;;;;;;20.36;43.01;100906.19;5074508;28;20020;-33
2021/06/07 00:38:32;;;;;;;3.35;1.20;;;;;;;20.34;43.16;100900.06;5074708;28;20024;-31
2021/06/07 00:41:00;;;;;;;2.00;0.73;;;;;;;20.39;43.14;100898.19;5074597;28;20447;-33
2021/06/07 00:43:26;;;;;;;0.17;0.17;;;;;;;20.51;42.97;100897.03;5074550;28;20024;-30
2021/06/07 00:45:52;;;;;;;2.67;0.88;;;;;;;20.45;42.94;100901.56;5074574;28;20525;-31
2021/06/07 00:48:19;;;;;;;7.03;1.58;;;;;;;20.45;43.14;100903.34;5068720;28;20055;-32
2021/06/07 00:50:53;;;;;;;2.17;0.63;;;;;;;20.45;42.87;100884.75;5054323;28;20029;-31
2021/06/07 00:53:19;;;;;;;7.82;1.05;;;;;;;20.45;42.79;100890.94;5066663;28;20364;-30
2021/06/07 00:55:56;;;;;;;0.85;0.52;;;;;;;20.53;42.72;100884.63;5074208;28;20111;-31
2021/06/07 00:58:27;;;;;;;1.77;0.65;;;;;;;20.57;42.89;100889.84;5074613;28;20458;-31
2021/06/07 01:00:53;;;;;;;4.05;0.88;;;;;;;20.59;42.77;100893.31;5074420;28;20032;-31
2021/06/07 01:03:20;;;;;;;4.65;0.63;;;;;;;20.63;42.67;100892.34;5074621;28;20038;-31
2021/06/07 01:05:47;;;;;;;0.98;0.30;;;;;;;20.65;42.60;100893.19;5074416;28;20362;-31
2021/06/07 01:08:13;;;;;;;6.63;0.43;;;;;;;20.64;42.43;100894.06;5074321;28;20035;-31
2021/06/07 01:10:39;;;;;;;4.30;0.57;;;;;;;20.62;42.65;100890.59;5074294;28;20473;-30
2021/06/07 01:13:05;;;;;;;4.30;0.90;;;;;;;20.71;42.47;100898.34;5074605;28;20332;-31
2021/06/07 01:15:31;;;;;;;3.80;1.03;;;;;;;20.73;42.65;100902.75;5074495;28;20017;-31
2021/06/07 01:17:57;;;;;;;2.87;0.57;;;;;;;20.71;42.55;100902.78;5073682;28;20450;-30
2021/06/07 01:20:24;;;;;;;1.60;0.87;;;;;;;20.71;42.72;100902.78;5072733;28;20028;-32
2021/06/07 01:22:50;;;;;;;0.17;0.13;;;;;;;20.59;42.88;100903.94;5075065;28;20052;-31
2021/06/07 01:25:25;;;;;;;3.47;1.80;;;;;;;20.65;42.81;100900.25;5074085;28;20078;-31
2021/06/07 01:27:51;;;;;;;1.52;0.47;;;;;;;20.53;43.09;100909.38;5074023;28;20052;-32
2021/06/07 01:30:19;;;;;;;0.75;0.40;;;;;;;20.50;43.18;100906.78;5083048;28;20034;-32
2021/06/07 01:32:46;;;;;;;7.47;1.00;;;;;;;20.47;43.22;100904.22;5094415;28;20077;-31
2021/06/07 01:35:12;;;;;;;1.57;0.37;;;;;;;20.43;43.24;100906.03;5073911;28;20516;-31
2021/06/07 01:37:39;;;;;;;7.35;1.15;;;;;;;20.41;43.23;100893.69;5074247;28;20253;-31
2021/06/07 01:40:07;;;;;;;0.70;0.35;;;;;;;20.37;43.09;100903.53;5072454;28;20021;-32
2021/06/07 01:42:33;;;;;;;4.13;1.23;;;;;;;20.40;43.06;100898.13;5076038;28;20039;-30
2021/06/07 01:44:59;;;;;;;4.37;1.77;;;;;;;20.42;43.20;100906.06;5075836;28;20099;-31
2021/06/07 01:47:26;;;;;;;0.53;0.53;;;;;;;20.43;43.49;100894.56;5073179;28;20025;-31
2021/06/07 01:49:52;;;;;;;1.58;0.85;;;;;;;20.44;43.30;100904.25;5084542;28;20169;-34
2021/06/07 01:52:18;;;;;;;5.82;2.10;;;;;;;20.46;43.35;100905.06;5073906;28;20366;-31
2021/06/07 01:54:44;;;;;;;0.40;0.20;;;;;;;20.43;43.21;100890.09;5074326;28;20485;-31
2021/06/07 01:57:10;;;;;;;17.77;1.75;;;;;;;20.40;42.91;100898.13;5076421;28;20354;-33
2021/06/07 01:59:36;;;;;;;1.07;0.23;;;;;;;20.37;43.12;100886.75;5077375;28;20036;-31
2021/06/07 02:02:06;;;;;;;2.73;1.13;;;;;;;20.40;43.03;100895.47;5077414;28;20039;-31
2021/06/07 02:04:33;;;;;;;2.00;0.38;;;;;;;20.40;43.19;100892.81;5091620;28;20107;-31
2021/06/07 02:06:59;;;;;;;6.75;0.63;;;;;;;20.34;40.94;100887.66;5084090;28;20024;-31
2021/06/07 02:09:25;;;;;;;20.95;1.05;;;;;;;19.67;41.42;100895.25;5092331;28;20470;-31
2021/06/07 02:11:52;;;;;;;4.27;0.57;;;;;;;19.42;41.97;100891.28;5076985;28;20106;-33
2021/06/07 02:14:18;;;;;;;0.30;0.20;;;;;;;19.20;41.82;100890.78;5088255;28;20748;-31
2021/06/07 02:16:44;;;;;;;3.77;1.53;;;;;;;19.39;41.43;100893.97;5088628;28;20106;-33
2021/06/07 02:19:10;;;;;;;26.20;2.27;;;;;;;19.17;41.30;100882.88;5081460;28;20430;-31
2021/06/07 02:21:37;;;;;;;4.93;2.00;;;;;;;18.91;42.01;100891.28;5077171;28;20032;-31
2021/06/07 02:24:07;;;;;;;10.50;1.48;;;;;;;19.26;41.14;100892.44;5084606;28;20044;-34
2021/06/07 02:26:33;;;;;;;3.47;1.80;;;;;;;18.71;42.30;100888.06;5097469;28;20058;-31
2021/06/07 02:29:02;;;;;;;14.33;1.27;;;;;;;18.38;42.69;100896.44;5090514;28;20490;-31
2021/06/07 02:31:28;;;;;;;1.15;0.85;;;;;;;18.96;42.07;100891.19;5076978;28;20293;-31
2021/06/07 02:33:55;;;;;;;9.33;0.60;;;;;;;18.99;41.66;100896.41;5089183;28;20032;-31
2021/06/07 02:36:22;;;;;;;7.25;1.70;;;;;;;19.09;41.40;100901.56;5097255;28;20449;-32
2021/06/07 02:38:48;;;;;;;;;;;;;;;18.72;42.24;100895.09;5096601;28;20039;-30
2021/06/07 02:41:14;;;;;;;2.35;0.47;;;;;;;18.74;42.07;100898.59;5088248;28;19916;-31
2021/06/07 02:43:40;;;;;;;2.65;0.95;;;;;;;18.84;42.12;100905.47;5077967;28;20031;-31
2021/06/07 02:46:06;;;;;;;3.30;1.10;;;;;;;18.84;42.09;100909.00;5097090;28;20442;-31
2021/06/07 02:48:34;;;;;;;2.60;1.35;;;;;;;18.79;41.95;100910.84;5089429;28;20060;-32
2021/06/07 02:51:00;;;;;;;3.88;1.17;;;;;;;18.81;41.57;100905.56;5096041;28;20106;-31
2021/06/07 02:53:26;;;;;;;4.78;0.65;;;;;;;18.96;41.79;100913.25;5086400;28;20024;-31
2021/06/07 02:55:53;;;;;;;5.73;0.73;;;;;;;19.18;41.39;100917.28;5092498;28;20035;-30
2021/06/07 02:58:20;;;;;;;2.35;0.47;;;;;;;19.17;41.57;100915.53;5076616;28;20465;-31
2021/06/07 03:00:52;;;;;;;7.80;1.33;;;;;;;19.18;41.65;100919.94;5095025;28;20040;-31
2021/06/07 03:03:18;;;;;;;3.00;0.63;;;;;;;19.19;41.74;100916.38;5086985;28;20052;-31
2021/06/07 03:05:45;;;;;;;9.13;1.17;;;;;;;19.21;42.11;100931.38;5072278;28;20086;-32
2021/06/07 03:08:12;;;;;;;3.00;0.47;;;;;;;19.21;42.10;100928.72;5079061;28;20338;-31
2021/06/07 03:10:39;;;;;;;3.08;1.15;;;;;;;19.26;42.13;100926.88;5082173;28;20123;-31
2021/06/07 03:13:05;;;;;;;9.43;1.90;;;;;;;19.26;42.16;100921.56;5082826;28;20033;-33
2021/06/07 03:15:31;;;;;;;2.30;0.80;;;;;;;19.28;42.31;100922.44;5076299;28;20032;-31
2021/06/07 03:17:57;;;;;;;1.13;0.57;;;;;;;19.41;42.00;100924.81;5076176;28;20032;-32
2021/06/07 03:20:27;;;;;;;5.23;1.30;;;;;;;19.33;42.23;100921.44;5064754;28;20056;-30
2021/06/07 03:22:57;;;;;;;0.35;0.25;;;;;;;19.30;42.48;100931.22;5061487;28;20082;-31
2021/06/07 03:25:24;;;;;;;1.48;0.20;;;;;;;19.29;42.37;100927.69;5086025;28;20111;-31
2021/06/07 03:27:51;;;;;;;6.22;0.75;;;;;;;19.26;42.66;100933.03;5075986;28;20095;-32
2021/06/07 03:30:18;;;;;;;2.67;1.02;;;;;;;19.25;42.67;100919.84;5075287;28;20052;-33
2021/06/07 03:32:44;;;;;;;1.55;0.50;;;;;;;19.30;42.54;100928.56;5055823;28;20055;-33
2021/06/07 03:35:12;;;;;;;10.05;2.20;;;;;;;19.29;42.62;100913.59;5062481;28;20420;-32
2021/06/07 03:37:38;;;;;;;5.30;0.50;;;;;;;19.27;42.82;100916.25;5086503;28;20028;-31
2021/06/07 03:40:16;;;;;;;5.80;0.87;;;;;;;19.32;42.49;100914.41;5075697;28;20454;-31
2021/06/07 03:42:42;;;;;;;4.38;0.60;;;;;;;19.34;42.64;100930.28;5073841;28;20024;-32
2021/06/07 03:45:09;;;;;;;6.88;0.75;;;;;;;19.34;42.73;100917.91;5075018;28;20020;-30
2021/06/07 03:47:36;;;;;;;0.57;0.57;;;;;;;19.40;42.60;100912.47;5074968;28;20024;-34
2021/06/07 03:50:04;;;;;;;3.22;1.05;;;;;;;19.36;42.65;100923.16;5074755;28;20028;-31
2021/06/07 03:52:30;;;;;;;2.75;1.55;;;;;;;19.30;42.90;100918.84;5080258;28;20100;-31
2021/06/07 03:54:57;;;;;;;0.82;0.60;;;;;;;19.30;43.03;100923.28;5075395;28;20354;-31
2021/06/07 03:57:23;;;;;;;17.92;1.25;;;;;;;19.31;42.76;100927.66;5077332;28;20087;-31
2021/06/07 03:59:49;;;;;;;8.43;1.70;;;;;;;19.32;42.85;100929.41;5075161;28;20040;-32
2021/06/07 04:02:18;;;;;;;4.05;1.58;;;;;;;19.32;42.95;100935.59;5074140;28;20032;-32
2021/06/07 04:04:44;;;;;;;3.00;0.38;;;;;;;19.30;42.97;100933.88;5072915;28;20032;-31
2021/06/07 04:07:10;;;;;;;13.73;0.30;;;;;;;19.32;42.92;100937.34;5087126;28;20070;-32
2021/06/07 04:09:39;;;;;;;4.10;0.83;;;;;;;19.35;42.90;100945.25;5072101;28;20029;-31
2021/06/07 04:12:06;;;;;;;0.80;0.55;;;;;;;19.36;43.11;100937.28;5074939;28;20036;-31
2021/06/07 04:14:32;;;;;;;4.25;0.77;;;;;;;19.38;42.76;100924.88;5073397;28;20024;-31
2021/06/07 04:16:59;;;;;;;1.15;1.00;;;;;;;19.39;42.90;100937.22;5074188;28;20055;-31
2021/06/07 04:19:25;;;;;;;11.50;0.93;;;;;;;19.35;43.13;100929.38;5056043;28;20036;-32
2021/06/07 04:21:51;;;;;;;0.97;0.87;;;;;;;19.35;43.10;100934.66;5053834;28;20120;-33
2021/06/07 04:24:17;;;;;;;2.53;0.67;;;;;;;19.30;43.08;100933.88;5054739;28;20108;-32
2021/06/07 04:26:44;;;;;;;2.87;1.57;;;;;;;19.29;43.19;100942.72;5055078;28;20045;-32
2021/06/07 04:29:10;;;;;;;2.25;0.95;;;;;;;19.31;43.16;100940.91;5054893;28;20747;-31
2021/06/07 04:31:36;;;;;;;2.38;1.05;;;;;;;19.27;43.28;100942.72;5053989;28;20020;-33
2021/06/07 04:34:02;;;;;;;1.88;0.65;;;;;;;19.23;43.25;100941.06;5054610;28;20336;-32
2021/06/07 04:36:28;;;;;;;5.78;1.98;;;;;;;19.29;42.99;100945.38;5054746;28;20021;-31
2021/06/07 04:38:54;;;;;;;0.40;0.40;;;;;;;19.33;43.14;100952.38;5054899;28;20017;-32
2021/06/07 04:41:20;;;;;;;5.88;2.35;;;;;;;19.33;43.38;100955.03;5054777;28;20021;-31
2021/06/07 04:43:47;;;;;;;21.05;0.52;;;;;;;19.34;43.07;100940.88;5054599;28;20035;-31
2021/06/07 04:46:13;;;;;;;3.67;1.25;;;;;;;19.38;43.10;100955.81;5054402;28;20020;-33
2021/06/07 04:48:39;;;;;;;5.90;2.53;;;;;;;19.42;43.09;100954.84;5072730;28;20028;-31
2021/06/07 04:51:05;;;;;;;1.30;0.47;;;;;;;19.40;42.97;100956.66;5074415;28;20107;-32
2021/06/07 04:53:31;;;;;;;3.40;1.10;;;;;;;19.28;43.16;100963.03;5073151;28;20028;-32
2021/06/07 04:55:58;;;;;;;0.30;0.30;;;;;;;19.26;43.35;100959.53;5090523;28;20473;-32
2021/06/07 04:58:28;;;;;;;1.55;1.00;;;;;;;19.25;43.25;100964.84;5073822;28;20268;-32
2021/06/07 05:01:06;;;;;;;9.95;1.45;;;;;;;19.21;43.13;100974.63;5073379;28;20032;-31
2021/06/07 05:03:32;;;;;;;0.65;0.52;;;;;;;19.24;43.17;100968.41;5074751;28;20331;-31
2021/06/07 05:05:59;;;;;;;0.50;0.50;;;;;;;19.27;43.08;100973.63;5075931;28;20363;-31
2021/06/07 05:08:25;;;;;;;0.50;0.50;;;;;;;19.30;43.15;100973.59;5084553;28;20024;-31
2021/06/07 05:10:52;;;;;;;8.48;0.93;;;;;;;19.32;43.28;100966.47;5084873;28;20020;-32
2021/06/07 05:13:18;;;;;;;0.40;0.28;;;;;;;19.36;43.13;100978.78;5076193;28;20109;-31
2021/06/07 05:15:44;;;;;;;1.15;0.70;;;;;;;19.27;43.42;100984.22;5073318;28;20033;-34
2021/06/07 05:18:11;;;;;;;0.10;0.10;;;;;;;19.23;43.48;100979.88;5081580;28;20043;-31
2021/06/07 05:20:37;;;;;;;6.43;0.75;;;;;;;19.21;43.46;100989.63;5073142;28;20273;-31
2021/06/07 05:23:04;;;;;;;2.78;1.20;;;;;;;19.28;43.17;100984.22;5080006;28;20032;-31
2021/06/07 05:25:31;;;;;;;3.03;0.47;;;;;;;19.24;43.28;100990.47;5071583;28;20024;-31
2021/06/07 05:27:57;;;;;;;4.70;1.23;;;;;;;19.16;43.52;100993.22;5077782;28;20273;-31
2021/06/07 05:30:24;;;;;;;3.50;0.88;;;;;;;19.15;43.66;100995.91;5075970;28;20024;-32
2021/06/07 05:32:50;;;;;;;;;;;;;;;19.21;43.44;100994.94;5077633;28;20021;-31
2021/06/07 05:35:17;;;;;;;2.28;0.63;;;;;;;19.23;43.54;100994.03;5077564;28;19912;-31
2021/06/07 05:37:43;;;;;;;1.40;0.88;;;;;;;19.26;43.39;100993.09;5078215;28;20028;-31
2021/06/07 05:40:10;;;;;;;6.30;0.88;;;;;;;19.27;43.47;100997.47;5075566;28;20082;-32
2021/06/07 05:42:37;;;;;;;2.47;1.45;;;;;;;19.30;43.32;100989.50;5089716;28;20335;-31
2021/06/07 05:45:05;;;;;;;7.78;0.70;;;;;;;19.23;43.74;100999.31;5087405;28;20485;-31
2021/06/07 05:47:31;;;;;;;3.83;0.73;;;;;;;19.25;43.59;101001.94;5090165;28;20023;-32
2021/06/07 05:49:57;;;;;;;11.18;2.33;;;;;;;19.21;43.68;101010.81;5097586;28;20032;-31
2021/06/07 05:52:23;;;;;;;2.28;0.70;;;;;;;19.19;43.82;101006.44;5095124;28;20029;-31
2021/06/07 05:54:49;;;;;;;10.80;0.45;;;;;;;19.15;43.82;101009.16;5078759;28;20385;-32
2021/06/07 05:57:15;;;;;;;9.57;3.43;;;;;;;19.13;43.88;101006.53;5077651;28;20056;-30
2021/06/07 05:59:43;;;;;;;0.00;0.00;;;;;;;19.14;44.08;101000.34;5090960;28;20385;-31
2021/06/07 06:02:10;;;;;;;1.05;0.30;;;;;;;19.15;43.86;101001.19;5077674;28;20020;-32
2021/06/07 06:04:36;;;;;;;1.58;0.55;;;;;;;19.20;43.81;101007.31;5080253;28;20032;-31
2021/06/07 06:07:03;;;;;;;10.25;0.80;;;;;;;19.25;43.64;100996.63;5096395;28;20090;-33
2021/06/07 06:09:29;;;;;;;11.48;0.55;;;;;;;19.26;43.75;100999.25;5067604;28;20025;-31
2021/06/07 06:11:56;;;;;;;4.77;0.63;;;;;;;19.25;43.95;100992.22;5073829;28;20036;-31
2021/06/07 06:14:23;;;;;;;2.58;0.43;;;;;;;19.23;43.80;100994.03;5077491;28;20027;-32
2021/06/07 06:16:49;;;;;;;1.05;0.45;;;;;;;19.13;44.06;100990.66;5080998;28;20063;-31
2021/06/07 06:19:15;;;;;;;2.23;0.50;;;;;;;19.14;44.17;101002.97;5082136;28;20016;-31
2021/06/07 06:21:42;;;;;;;1.27;0.40;;;;;;;19.15;44.01;101001.19;5077371;28;20350;-31
2021/06/07 06:24:09;;;;;;;5.05;2.28;;;;;;;19.17;44.14;100988.78;5077088;28;20481;-32
2021/06/07 06:26:35;;;;;;;4.63;1.15;;;;;;;19.07;44.21;100996.00;5076982;28;20374;-32
2021/06/07 06:29:01;;;;;;;0.25;0.25;;;;;;;19.05;44.13;101003.13;5078383;28;20079;-31
2021/06/07 06:31:27;;;;;;;1.30;0.52;;;;;;;19.10;44.15;100989.81;5079355;28;20033;-31
2021/06/07 06:33:54;;;;;;;0.57;0.43;;;;;;;19.14;44.06;100996.81;5090703;28;20465;-31
2021/06/07 06:36:20;;;;;;;5.43;1.67;;;;;;;19.17;43.89;100984.38;5077008;28;20330;-31
2021/06/07 06:38:46;;;;;;;0.63;0.43;;;;;;;19.18;43.97;100978.19;5077071;28;20028;-31
2021/06/07 06:41:12;;;;;;;2.65;0.57;;;;;;;19.13;44.28;100976.50;5087029;28;20366;-31
2021/06/07 06:43:38;;;;;;;0.20;0.20;;;;;;;19.05;44.42;100970.47;5093645;28;20332;-31
2021/06/07 06:46:05;;;;;;;5.40;2.30;;;;;;;19.06;44.30;100964.28;5092037;28;20036;-31
2021/06/07 06:48:33;;;;;;;2.58;1.30;;;;;;;19.02;44.32;100976.69;5080383;28;20031;-31
2021/06/07 06:50:59;;;;;;;0.60;0.22;;;;;;;19.00;44.39;100973.19;5096928;28;20024;-31
2021/06/07 06:53:26;;;;;;;0.20;0.20;;;;;;;19.04;44.44;100976.69;5094412;28;20031;-31
2021/06/07 06:55:52;;;;;;;3.57;2.03;;;;;;;19.06;44.34;100973.09;5096457;28;20038;-31
2021/06/07 06:58:18;;;;;;;3.00;0.38;;;;;;;18.99;44.51;100973.19;5095868;28;20035;-32
2021/06/07 07:00:45;;;;;;;1.93;0.97;;;;;;;19.03;44.41;100970.47;5082247;28;20031;-33
2021/06/07 07:03:21;;;;;;;3.17;1.37;;;;;;;19.07;44.16;100969.53;5076642;28;20031;-31
2021/06/07 07:05:47;;;;;;;6.60;0.70;;;;;;;19.08;44.33;100970.41;5087275;28;20450;-32
2021/06/07 07:08:13;;;;;;;8.60;1.10;;;;;;;19.09;44.34;100970.41;5092132;28;20036;-32
2021/06/07 07:10:40;;;;;;;2.77;1.23;;;;;;;19.03;44.30;100967.81;5076484;28;20025;-30
2021/06/07 07:13:06;;;;;;;;;;;;;;;19.02;44.56;100965.22;5076683;28;20036;-31
2021/06/07 07:15:33;;;;;;;1.40;0.47;;;;;;;19.06;44.24;100957.19;5076281;28;19912;-31
2021/06/07 07:17:59;;;;;;;4.15;1.15;;;;;;;18.99;44.26;100950.28;5074716;28;20355;-33
2021/06/07 07:20:26;;;;;;;0.35;0.22;;;;;;;19.10;44.08;100947.44;5072832;28;20039;-31
2021/06/07 07:22:54;;;;;;;3.63;0.50;;;;;;;19.05;44.28;100939.56;5064623;28;20024;-31
2021/06/07 07:25:21;;;;;;;0.47;0.47;;;;;;;18.97;44.47;100944.09;5075550;28;20039;-31
2021/06/07 07:27:47;;;;;;;11.87;1.33;;;;;;;19.10;44.10;100950.09;5074973;28;20054;-33
2021/06/07 07:30:17;;;;;;;11.13;1.95;;;;;;;19.04;44.38;100961.66;5083367;28;20365;-31
2021/06/07 07:32:45;;;;;;;0.25;0.25;;;;;;;19.03;44.39;100964.31;5076662;28;20033;-31
2021/06/07 07:35:11;;;;;;;0.88;0.50;;;;;;;18.99;44.15;100963.50;5075888;28;20032;-31
2021/06/07 07:37:38;;;;;;;2.20;1.27;;;;;;;19.03;44.32;100969.59;5075482;28;20024;-31
2021/06/07 07:40:05;;;;;;;3.03;1.08;;;;;;;18.99;44.34;100970.53;5079187;28;20042;-31
2021/06/07 07:42:32;;;;;;;2.17;1.17;;;;;;;18.90;44.61;100977.75;5093437;28;20024;-32
2021/06/07 07:45:00;;;;;;;0.90;0.68;;;;;;;18.92;44.61;100975.06;5095792;28;20024;-34
2021/06/07 07:47:26;;;;;;;0.98;0.68;;;;;;;18.90;44.68;100980.41;5095554;28;20032;-34
2021/06/07 07:49:52;;;;;;;1.20;0.80;;;;;;;18.94;44.68;100975.91;5099216;28;20467;-31
2021/06/07 07:52:22;;;;;;;3.30;1.15;;;;;;;18.88;44.77;100979.53;5075899;28;20028;-31
2021/06/07 07:54:55;;;;;;;0.93;0.20;;;;;;;18.79;44.85;100982.31;5076041;28;20028;-31
2021/06/07 07:57:22;;;;;;;2.72;0.55;;;;;;;18.95;44.63;100985.63;5091994;28;20031;-32
2021/06/07 07:59:48;;;;;;;0.98;0.73;;;;;;;18.90;44.70;100984.81;5095165;28;20480;-32
2021/06/07 08:02:15;;;;;;;4.85;0.60;;;;;;;18.91;44.47;100992.72;5092876;28;20035;-32
2021/06/07 08:04:41;;;;;;;2.25;0.50;;;;;;;18.95;44.35;100996.22;5084868;28;20024;-30
2021/06/07 08:07:08;;;;;;;3.50;0.65;;;;;;;18.96;44.44;100995.31;5094975;28;20040;-31
2021/06/07 08:09:34;;;;;;;0.13;0.13;;;;;;;18.86;44.67;101010.44;5078215;28;20089;-31
2021/06/07 08:12:00;;;;;;;0.73;0.40;;;;;;;18.81;44.93;101000.84;5093337;28;20032;-32
2021/06/07 08:14:27;;;;;;;0.67;0.40;;;;;;;18.80;44.81;101013.19;5086869;28;20039;-31
2021/06/07 08:16:54;;;;;;;0.40;0.23;;;;;;;18.78;44.99;101022.03;5074917;28;20055;-31
2021/06/07 08:19:20;;;;;;;;;;;;;;;18.79;45.04;101026.44;5077782;28;20063;-32
2021/06/07 08:21:46;;;;;;;3.72;0.63;;;;;;;18.78;44.88;101016.75;5087707;28;19958;-33
2021/06/07 08:24:12;;;;;;;0.83;0.53;;;;;;;18.77;44.91;101015.00;5094906;28;20028;-30
2021/06/07 08:26:38;;;;;;;0.45;0.35;;;;;;;18.74;45.19;101015.03;5093291;28;20020;-31
2021/06/07 08:29:07;;;;;;;10.45;1.25;;;;;;;18.80;44.92;101021.13;5094954;28;20031;-31
2021/06/07 08:31:33;;;;;;;3.78;1.02;;;;;;;18.86;44.48;101017.53;5081556;28;20474;-32
2021/06/07 08:33:59;;;;;;;0.37;0.33;;;;;;;18.87;44.37;101013.97;5073155;28;20097;-31
2021/06/07 08:36:26;;;;;;;2.25;1.50;;;;;;;18.90;44.49;101019.22;5072720;28;20040;-33
2021/06/07 08:38:52;;;;;;;1.40;0.33;;;;;;;18.88;44.62;101023.66;5072825;28;20024;-32
2021/06/07 08:41:19;;;;;;;1.85;0.85;;;;;;;18.81;45.02;101011.41;5076017;28;20356;-31
2021/06/07 08:43:45;;;;;;;7.38;1.45;;;;;;;18.80;44.73;101009.63;5083529;28;20078;-34
2021/06/07 08:46:12;;;;;;;5.93;1.23;;;;;;;18.76;44.92;101024.72;5081422;28;20024;-31
2021/06/07 08:48:38;;;;;;;4.07;1.15;;;;;;;18.76;45.10;101022.06;5077922;28;20028;-32
2021/06/07 08:51:05;;;;;;;4.37;0.90;;;;;;;18.76;45.12;101024.72;5075743;28;20028;-31
2021/06/07 08:53:31;;;;;;;2.45;0.77;;;;;;;18.68;45.07;101022.16;5073796;28;20030;-31
2021/06/07 08:55:57;;;;;;;0.75;0.47;;;;;;;18.72;45.30;101024.78;5086023;28;20036;-31
2021/06/07 08:58:23;;;;;;;14.37;1.67;;;;;;;18.75;44.90;101015.00;5093785;28;20024;-32
2021/06/07 09:00:49;;;;;;;4.13;0.70;;;;;;;18.79;44.80;101011.41;5094257;28;20016;-31
2021/06/07 09:03:19;;;;;;;4.78;1.33;;;;;;;18.83;44.67;100996.38;5093393;28;20020;-32
2021/06/07 09:05:46;;;;;;;0.45;0.25;;;;;;;18.82;44.68;101002.56;5090205;28;20044;-31
2021/06/07 09:08:15;;;;;;;;;;;;;;;18.75;44.94;100995.59;5083535;28;20342;-31
2021/06/07 09:10:42;;;;;;;8.32;1.30;;;;;;;18.74;45.30;100984.13;5086315;28;19912;-33
2021/06/07 09:13:09;;;;;;;4.90;0.95;;;;;;;18.64;45.30;100987.78;5074460;28;20020;-31
2021/06/07 09:15:40;;;;;;;0.20;0.13;;;;;;;18.74;45.20;100992.09;5072854;28;20446;-32
2021/06/07 09:18:09;;;;;;;0.65;0.65;;;;;;;18.64;45.29;100998.38;5072456;28;20371;-31
2021/06/07 09:20:35;;;;;;;2.92;0.85;;;;;;;18.61;45.46;101003.69;5075708;28;20059;-31
2021/06/07 09:23:06;;;;;;;6.85;1.63;;;;;;;18.63;45.43;101008.06;5069304;28;20024;-31
2021/06/07 09:25:39;;;;;;;3.33;1.00;;;;;;;18.63;45.61;101016.00;5072701;28;20094;-31
2021/06/07 09:28:12;;;;;;;8.27;1.38;;;;;;;18.71;45.14;101029.19;5072016;28;20117;-32
2021/06/07 09:30:43;;;;;;;5.35;0.40;;;;;;;18.74;44.99;101030.91;5074589;28;20475;-31
2021/06/07 09:33:20;;;;;;;0.20;0.17;;;;;;;18.76;44.91;101024.72;5073377;28;20075;-31
2021/06/07 09:36:05;;;;;;;2.75;0.77;;;;;;;18.74;44.86;101020.31;5074101;28;20024;-31
2021/06/07 09:38:31;;;;;;;2.95;0.80;;;;;;;18.62;45.27;101016.03;5073061;28;20028;-31
2021/06/07 09:41:02;;;;;;;10.32;1.10;;;;;;;18.61;45.09;101017.81;5075340;28;20036;-30
2021/06/07 09:43:50;;;;;;;0.08;0.08;;;;;;;18.61;45.41;101016.91;5072718;28;20044;-32
2021/06/07 09:46:16;;;;;;;0.73;0.30;;;;;;;18.67;45.00;101004.50;5080392;28;20100;-32
2021/06/07 09:48:43;;;;;;;3.40;1.50;;;;;;;18.60;45.34;100997.53;5086726;28;20032;-33
2021/06/07 09:51:09;;;;;;;0.30;0.30;;;;;;;18.59;45.46;100997.56;5080739;28;20032;-32
2021/06/07 09:53:42;;;;;;;6.03;1.47;;;;;;;18.57;45.50;100997.59;5094262;28;20081;-31
2021/06/07 09:56:08;;;;;;;4.35;0.52;;;;;;;18.67;45.21;100999.22;5091907;28;20092;-30
2021/06/07 09:58:39;;;;;;;0.67;0.30;;;;;;;18.66;44.91;100992.16;5082603;28;20026;-32
2021/06/07 10:01:12;;;;;;;4.47;0.73;;;;;;;18.68;45.01;100987.75;5073916;28;20100;-31
2021/06/07 10:03:42;;;;;;;0.10;0.10;;;;;;;18.68;44.87;100989.50;5073908;28;20028;-31
2021/06/07 10:06:26;;;;;;;3.35;1.65;;;;;;;18.64;45.24;100993.06;5073643;28;20335;-32
2021/06/07 10:08:58;;;;;;;7.68;2.00;;;;;;;18.66;45.21;100978.94;5074987;28;20143;-31
2021/06/07 10:11:27;;;;;;;0.45;0.10;;;;;;;18.58;45.33;100978.16;5081353;28;20410;-31
2021/06/07 10:14:09;;;;;;;1.00;0.45;;;;;;;18.63;45.13;100981.63;5087717;28;20024;-32
2021/06/07 10:16:37;;;;;;;2.60;0.95;;;;;;;18.61;45.06;100983.44;5076949;28;20017;-31
2021/06/07 10:19:16;;;;;;;;;;;;;;;18.70;45.04;100989.50;5072448;28;20028;-31
2021/06/07 10:21:42;;;;;;;4.22;0.52;;;;;;;18.62;45.19;100995.75;5084184;28;19912;-33
2021/06/07 10:24:08;;;;;;;3.75;2.00;;;;;;;18.71;44.71;100993.91;5097192;28;20035;-32
2021/06/07 10:26:34;;;;;;;0.40;0.27;;;;;;;18.60;44.90;100994.88;5095349;28;20115;-32
2021/06/07 10:29:01;;;;;;;9.30;0.98;;;;;;;18.64;44.80;100995.72;5097186;28;20341;-32
2021/06/07 10:31:27;;;;;;;2.20;0.40;;;;;;;18.63;45.07;101001.91;5096773;28;20052;-32
2021/06/07 10:34:03;;;;;;;3.60;2.40;;;;;;;18.64;44.91;100995.72;5094616;28;20028;-31
2021/06/07 10:36:33;;;;;;;1.65;0.57;;;;;;;18.56;45.11;101006.44;5082545;28;20066;-31
2021/06/07 10:39:14;;;;;;;2.47;0.68;;;;;;;18.62;45.09;100989.59;5076679;28;20075;-31
2021/06/07 10:41:41;;;;;;;0.90;0.50;;;;;;;18.61;44.94;101004.59;5077466;28;20028;-33
2021/06/07 10:44:08;;;;;;;2.88;0.08;;;;;;;18.50;45.35;101006.47;5077328;28;20028;-32
2021/06/07 10:46:40;;;;;;;4.30;1.33;;;;;;;18.52;45.31;101010.00;5076971;28;20028;-32
2021/06/07 10:49:35;;;;;;;3.00;1.50;;;;;;;18.48;45.55;101005.63;5076946;28;20040;-32
2021/06/07 10:52:21;;;;;;;12.80;1.15;;;;;;;18.45;45.35;100999.50;5090553;28;20426;-32
2021/06/07 10:55:01;;;;;;;0.63;0.17;;;;;;;18.49;45.46;101002.09;5096717;28;20031;-32
2021/06/07 10:57:50;;;;;;;0.82;0.40;;;;;;;18.56;45.09;101001.13;5080907;28;20052;-31
2021/06/07 11:00:38;;;;;;;2.00;0.95;;;;;;;18.56;45.05;101016.09;5076778;28;20040;-32
2021/06/07 11:03:13;;;;;;;;;;;;;;;18.58;44.94;101017.84;5077008;28;20054;-32
2021/06/07 11:05:40;;;;;;;2.55;0.40;;;;;;;18.54;45.36;101026.72;5079149;28;19999;-30
2021/06/07 11:08:31;;;;;;;3.03;0.65;;;;;;;18.53;45.38;101026.75;5093509;28;20404;-32
2021/06/07 11:11:14;;;;;;;0.15;0.15;;;;;;;18.62;44.97;101031.91;5080904;28;20020;-31
2021/06/07 11:13:50;;;;;;;15.95;0.82;;;;;;;18.60;45.06;101037.22;5078612;28;20021;-31
2021/06/07 11:16:29;;;;;;;1.08;0.63;;;;;;;18.56;45.08;101037.28;5085266;28;20024;-31
2021/06/07 11:18:59;;;;;;;0.98;0.75;;;;;;;18.62;45.06;101027.50;5096867;28;20035;-31
2021/06/07 11:21:29;;;;;;;4.28;0.35;;;;;;;18.52;45.25;101025.00;5085266;28;20025;-33
2021/06/07 11:23:55;;;;;;;4.03;0.50;;;;;;;18.56;45.02;101014.38;5076567;28;20032;-30
2021/06/07 11:26:34;;;;;;;1.87;0.87;;;;;;;18.52;45.04;101010.00;5082385;28;20024;-31
2021/06/07 11:29:01;;;;;;;0.75;0.17;;;;;;;18.51;45.18;101013.50;5096018;28;20035;-36
2021/06/07 11:31:33;;;;;;;0.08;0.08;;;;;;;18.50;45.23;101018.84;5095460;28;20408;-31